VTBD/DMK METAR and TAF weather

Enter ICAO airport designator
Station Type Date Time Source
VTBD METAR 2020/04/03 23:00 UTC NOAA

VTBD 032300Z 13003KT 9999 FEW020 28/26 Q1010 NOSIG


Station Type Date Time Source
VTBD Decoded METAR 2020/04/03 23:00 UTC NOAA

Don Muang, Thailand (VTBD) 13-55N 100-36E 12M
Apr 03, 2020 - 07:00 PM EDT / 2020.04.03 2300 UTC
Wind: from the SE (130 degrees) at 3 MPH (3 KT):0
Visibility: greater than 7 mile(s):0
Sky conditions: mostly clear
Temperature: 82 F (28 C)
Dew Point: 78 F (26 C)
Relative Humidity: 88%
Pressure (altimeter): 29.83 in. Hg (1010 hPa)
ob: VTBD 032300Z 13003KT 9999 FEW020 28/26 Q1010 NOSIG
cycle: 23

Station Type Date Time Source
VTBD TAF 2020/04/03 18:39 UTC NOAA

TAF VTBD 031700Z 0318/0424 18008KT 9999 FEW020
BECMG 0320/0322 11005KT
TEMPO 0323/0403 14010KT 4000 TSRA FEW018CB SCT025 BKN100
BECMG 0403/0405 19010KT

Example: see airport list